sensor_id;sensor_type;location;lat;lon;timestamp;P1;durP1;ratioP1;P2;durP2;ratioP2
68792;SDS011;55778;54.346;10.210;2023-02-28T00:00:50;10.25;;;5.38;;
68792;SDS011;55778;54.346;10.210;2023-02-28T00:03:15;10.77;;;5.32;;
68792;SDS011;55778;54.346;10.210;2023-02-28T00:05:41;9.40;;;5.25;;
68792;SDS011;55778;54.346;10.210;2023-02-28T00:08:07;10.05;;;5.35;;
68792;SDS011;55778;54.346;10.210;2023-02-28T00:10:32;11.13;;;5.75;;
68792;SDS011;55778;54.346;10.210;2023-02-28T00:13:02;10.15;;;5.75;;
68792;SDS011;55778;54.346;10.210;2023-02-28T00:15:29;12.05;;;5.80;;
68792;SDS011;55778;54.346;10.210;2023-02-28T00:17:55;9.70;;;5.35;;
68792;SDS011;55778;54.346;10.210;2023-02-28T00:20:21;10.15;;;4.93;;
68792;SDS011;55778;54.346;10.210;2023-02-28T00:22:47;11.68;;;5.13;;
68792;SDS011;55778;54.346;10.210;2023-02-28T00:25:16;9.60;;;5.32;;
68792;SDS011;55778;54.346;10.210;2023-02-28T00:27:43;11.40;;;6.22;;
68792;SDS011;55778;54.346;10.210;2023-02-28T00:30:10;14.13;;;6.10;;
68792;SDS011;55778;54.346;10.210;2023-02-28T00:32:37;9.35;;;5.03;;
68792;SDS011;55778;54.346;10.210;2023-02-28T00:35:03;10.38;;;5.57;;
68792;SDS011;55778;54.346;10.210;2023-02-28T00:37:30;13.32;;;5.68;;
68792;SDS011;55778;54.346;10.210;2023-02-28T00:39:55;10.02;;;5.20;;
68792;SDS011;55778;54.346;10.210;2023-02-28T00:42:21;11.02;;;5.53;;
68792;SDS011;55778;54.346;10.210;2023-02-28T00:44:46;11.35;;;5.65;;
68792;SDS011;55778;54.346;10.210;2023-02-28T00:47:12;11.45;;;5.95;;
68792;SDS011;55778;54.346;10.210;2023-02-28T00:49:37;12.30;;;6.10;;
68792;SDS011;55778;54.346;10.210;2023-02-28T00:52:03;11.75;;;5.85;;
68792;SDS011;55778;54.346;10.210;2023-02-28T00:54:28;11.00;;;6.10;;
68792;SDS011;55778;54.346;10.210;2023-02-28T00:56:54;12.68;;;6.22;;
68792;SDS011;55778;54.346;10.210;2023-02-28T00:59:19;14.25;;;6.05;;
68792;SDS011;55778;54.346;10.210;2023-02-28T01:01:45;11.82;;;5.88;;
68792;SDS011;55778;54.346;10.210;2023-02-28T01:04:11;11.55;;;6.57;;
68792;SDS011;55778;54.346;10.210;2023-02-28T01:06:37;14.27;;;6.43;;
68792;SDS011;55778;54.346;10.210;2023-02-28T01:09:04;15.07;;;6.60;;
68792;SDS011;55778;54.346;10.210;2023-02-28T01:11:31;13.18;;;6.40;;
68792;SDS011;55778;54.346;10.210;2023-02-28T01:13:58;12.77;;;6.40;;
68792;SDS011;55778;54.346;10.210;2023-02-28T01:16:24;13.77;;;7.93;;
68792;SDS011;55778;54.346;10.210;2023-02-28T01:18:50;14.35;;;7.07;;
68792;SDS011;55778;54.346;10.210;2023-02-28T01:21:17;10.82;;;6.05;;
68792;SDS011;55778;54.346;10.210;2023-02-28T01:23:44;12.32;;;5.85;;
68792;SDS011;55778;54.346;10.210;2023-02-28T01:26:11;13.50;;;6.75;;
68792;SDS011;55778;54.346;10.210;2023-02-28T01:28:39;14.10;;;6.50;;
68792;SDS011;55778;54.346;10.210;2023-02-28T01:31:05;12.55;;;6.88;;
68792;SDS011;55778;54.346;10.210;2023-02-28T01:33:31;15.65;;;6.47;;
68792;SDS011;55778;54.346;10.210;2023-02-28T01:35:58;13.65;;;7.00;;
68792;SDS011;55778;54.346;10.210;2023-02-28T01:38:24;11.13;;;5.65;;
68792;SDS011;55778;54.346;10.210;2023-02-28T01:40:50;9.88;;;5.65;;
68792;SDS011;55778;54.346;10.210;2023-02-28T01:43:23;12.27;;;5.60;;
68792;SDS011;55778;54.346;10.210;2023-02-28T01:46:14;12.75;;;5.70;;
68792;SDS011;55778;54.346;10.210;2023-02-28T01:48:45;10.73;;;5.30;;
68792;SDS011;55778;54.346;10.210;2023-02-28T01:51:26;10.50;;;4.90;;
68792;SDS011;55778;54.346;10.210;2023-02-28T01:54:06;11.70;;;5.28;;
68792;SDS011;55778;54.346;10.210;2023-02-28T01:56:38;9.30;;;5.00;;
68792;SDS011;55778;54.346;10.210;2023-02-28T01:59:12;11.90;;;5.68;;
68792;SDS011;55778;54.346;10.210;2023-02-28T02:01:43;10.88;;;6.22;;
68792;SDS011;55778;54.346;10.210;2023-02-28T02:04:09;11.48;;;6.18;;
68792;SDS011;55778;54.346;10.210;2023-02-28T02:06:38;10.52;;;5.70;;
68792;SDS011;55778;54.346;10.210;2023-02-28T02:09:07;12.68;;;6.22;;
68792;SDS011;55778;54.346;10.210;2023-02-28T02:11:33;16.25;;;6.55;;
68792;SDS011;55778;54.346;10.210;2023-02-28T02:16:37;10.80;;;5.43;;
68792;SDS011;55778;54.346;10.210;2023-02-28T02:22:12;10.60;;;5.35;;
68792;SDS011;55778;54.346;10.210;2023-02-28T02:27:48;9.88;;;5.60;;
68792;SDS011;55778;54.346;10.210;2023-02-28T02:36:06;9.57;;;4.80;;
68792;SDS011;55778;54.346;10.210;2023-02-28T02:38:42;9.40;;;4.85;;
68792;SDS011;55778;54.346;10.210;2023-02-28T02:41:24;7.70;;;4.68;;
68792;SDS011;55778;54.346;10.210;2023-02-28T02:44:06;9.32;;;4.97;;
68792;SDS011;55778;54.346;10.210;2023-02-28T02:46:35;11.07;;;5.10;;
68792;SDS011;55778;54.346;10.210;2023-02-28T02:49:06;8.75;;;4.40;;
68792;SDS011;55778;54.346;10.210;2023-02-28T02:51:36;7.30;;;4.28;;
68792;SDS011;55778;54.346;10.210;2023-02-28T02:54:08;7.68;;;4.03;;
68792;SDS011;55778;54.346;10.210;2023-02-28T02:56:43;7.97;;;4.53;;
68792;SDS011;55778;54.346;10.210;2023-02-28T02:59:12;9.97;;;4.33;;
68792;SDS011;55778;54.346;10.210;2023-02-28T03:01:40;11.23;;;4.85;;
68792;SDS011;55778;54.346;10.210;2023-02-28T03:04:11;11.05;;;4.40;;
68792;SDS011;55778;54.346;10.210;2023-02-28T03:06:40;7.65;;;4.20;;
68792;SDS011;55778;54.346;10.210;2023-02-28T03:09:05;10.50;;;4.43;;
68792;SDS011;55778;54.346;10.210;2023-02-28T03:11:31;8.23;;;4.43;;
68792;SDS011;55778;54.346;10.210;2023-02-28T03:25:17;9.55;;;4.10;;
68792;SDS011;55778;54.346;10.210;2023-02-28T03:33:10;11.38;;;6.00;;
68792;SDS011;55778;54.346;10.210;2023-02-28T03:36:24;12.18;;;5.65;;
68792;SDS011;55778;54.346;10.210;2023-02-28T03:38:41;9.88;;;4.97;;
68792;SDS011;55778;54.346;10.210;2023-02-28T03:41:22;11.32;;;5.43;;
68792;SDS011;55778;54.346;10.210;2023-02-28T03:43:56;10.93;;;5.30;;
68792;SDS011;55778;54.346;10.210;2023-02-28T03:46:27;10.65;;;5.13;;
68792;SDS011;55778;54.346;10.210;2023-02-28T03:48:58;13.50;;;6.20;;
68792;SDS011;55778;54.346;10.210;2023-02-28T03:51:33;15.18;;;6.20;;
68792;SDS011;55778;54.346;10.210;2023-02-28T03:54:02;12.13;;;6.45;;
68792;SDS011;55778;54.346;10.210;2023-02-28T03:56:55;13.60;;;5.43;;
68792;SDS011;55778;54.346;10.210;2023-02-28T03:59:37;15.70;;;5.95;;
68792;SDS011;55778;54.346;10.210;2023-02-28T04:02:07;10.90;;;5.40;;
68792;SDS011;55778;54.346;10.210;2023-02-28T04:04:33;9.88;;;5.35;;
68792;SDS011;55778;54.346;10.210;2023-02-28T04:07:03;16.48;;;6.35;;
68792;SDS011;55778;54.346;10.210;2023-02-28T04:09:31;11.02;;;5.90;;
68792;SDS011;55778;54.346;10.210;2023-02-28T04:11:57;14.27;;;6.47;;
68792;SDS011;55778;54.346;10.210;2023-02-28T04:14:22;13.07;;;6.45;;
68792;SDS011;55778;54.346;10.210;2023-02-28T04:16:48;11.45;;;6.10;;
68792;SDS011;55778;54.346;10.210;2023-02-28T04:19:15;12.07;;;5.80;;
68792;SDS011;55778;54.346;10.210;2023-02-28T04:21:41;11.23;;;5.90;;
68792;SDS011;55778;54.346;10.210;2023-02-28T04:24:15;14.60;;;7.32;;
68792;SDS011;55778;54.346;10.210;2023-02-28T04:26:44;19.15;;;8.27;;
68792;SDS011;55778;54.346;10.210;2023-02-28T04:29:11;18.77;;;8.30;;
68792;SDS011;55778;54.346;10.210;2023-02-28T04:31:38;14.70;;;6.75;;
68792;SDS011;55778;54.346;10.210;2023-02-28T04:34:04;18.25;;;7.88;;
68792;SDS011;55778;54.346;10.210;2023-02-28T04:36:30;18.30;;;7.22;;
68792;SDS011;55778;54.346;10.210;2023-02-28T04:38:56;15.45;;;7.18;;
68792;SDS011;55778;54.346;10.210;2023-02-28T04:41:22;21.77;;;7.57;;
68792;SDS011;55778;54.346;10.210;2023-02-28T04:43:47;14.30;;;7.07;;
68792;SDS011;55778;54.346;10.210;2023-02-28T04:46:13;15.77;;;7.03;;
68792;SDS011;55778;54.346;10.210;2023-02-28T04:48:39;16.52;;;7.40;;
68792;SDS011;55778;54.346;10.210;2023-02-28T04:51:05;18.83;;;8.45;;
68792;SDS011;55778;54.346;10.210;2023-02-28T04:53:31;21.83;;;11.38;;
68792;SDS011;55778;54.346;10.210;2023-02-28T04:55:57;17.55;;;7.60;;
68792;SDS011;55778;54.346;10.210;2023-02-28T04:58:23;15.25;;;7.32;;
68792;SDS011;55778;54.346;10.210;2023-02-28T05:00:49;14.40;;;6.95;;
68792;SDS011;55778;54.346;10.210;2023-02-28T05:03:15;15.75;;;7.35;;
68792;SDS011;55778;54.346;10.210;2023-02-28T05:05:40;13.73;;;7.38;;
68792;SDS011;55778;54.346;10.210;2023-02-28T05:08:06;13.00;;;7.10;;
68792;SDS011;55778;54.346;10.210;2023-02-28T05:10:31;15.40;;;7.43;;
68792;SDS011;55778;54.346;10.210;2023-02-28T05:12:57;18.17;;;7.75;;
68792;SDS011;55778;54.346;10.210;2023-02-28T05:15:23;13.95;;;7.63;;
68792;SDS011;55778;54.346;10.210;2023-02-28T05:17:48;17.75;;;7.82;;
68792;SDS011;55778;54.346;10.210;2023-02-28T05:20:14;17.38;;;7.78;;
68792;SDS011;55778;54.346;10.210;2023-02-28T05:22:40;15.23;;;7.80;;
68792;SDS011;55778;54.346;10.210;2023-02-28T05:25:06;13.35;;;7.05;;
68792;SDS011;55778;54.346;10.210;2023-02-28T05:27:32;15.80;;;7.68;;
68792;SDS011;55778;54.346;10.210;2023-02-28T05:29:57;19.63;;;10.05;;
68792;SDS011;55778;54.346;10.210;2023-02-28T05:32:24;19.67;;;9.20;;
68792;SDS011;55778;54.346;10.210;2023-02-28T05:34:50;17.00;;;8.73;;
68792;SDS011;55778;54.346;10.210;2023-02-28T05:37:15;23.45;;;10.05;;
68792;SDS011;55778;54.346;10.210;2023-02-28T05:39:41;18.23;;;9.32;;
68792;SDS011;55778;54.346;10.210;2023-02-28T05:42:07;23.00;;;9.95;;
68792;SDS011;55778;54.346;10.210;2023-02-28T05:44:34;24.83;;;11.20;;
68792;SDS011;55778;54.346;10.210;2023-02-28T05:46:59;20.77;;;9.75;;
68792;SDS011;55778;54.346;10.210;2023-02-28T05:49:25;18.33;;;8.48;;
68792;SDS011;55778;54.346;10.210;2023-02-28T05:51:50;16.52;;;8.27;;
68792;SDS011;55778;54.346;10.210;2023-02-28T05:54:15;19.75;;;8.88;;
68792;SDS011;55778;54.346;10.210;2023-02-28T05:56:41;14.63;;;7.90;;
68792;SDS011;55778;54.346;10.210;2023-02-28T05:59:09;15.40;;;7.72;;
68792;SDS011;55778;54.346;10.210;2023-02-28T06:01:36;17.77;;;7.90;;
68792;SDS011;55778;54.346;10.210;2023-02-28T06:04:04;16.60;;;7.60;;
68792;SDS011;55778;54.346;10.210;2023-02-28T06:06:31;17.40;;;8.18;;
68792;SDS011;55778;54.346;10.210;2023-02-28T06:08:59;16.38;;;7.38;;
68792;SDS011;55778;54.346;10.210;2023-02-28T06:11:26;21.17;;;7.93;;
68792;SDS011;55778;54.346;10.210;2023-02-28T06:13:56;19.70;;;8.30;;
68792;SDS011;55778;54.346;10.210;2023-02-28T06:16:24;22.77;;;8.68;;
68792;SDS011;55778;54.346;10.210;2023-02-28T06:18:50;15.93;;;7.85;;
68792;SDS011;55778;54.346;10.210;2023-02-28T06:21:17;16.30;;;8.43;;
68792;SDS011;55778;54.346;10.210;2023-02-28T06:23:43;18.17;;;8.40;;
68792;SDS011;55778;54.346;10.210;2023-02-28T06:26:09;20.35;;;8.23;;
68792;SDS011;55778;54.346;10.210;2023-02-28T06:28:34;17.98;;;8.25;;
68792;SDS011;55778;54.346;10.210;2023-02-28T06:31:04;19.73;;;8.30;;
68792;SDS011;55778;54.346;10.210;2023-02-28T06:33:31;21.10;;;9.50;;
68792;SDS011;55778;54.346;10.210;2023-02-28T06:35:57;17.33;;;8.48;;
68792;SDS011;55778;54.346;10.210;2023-02-28T06:38:22;22.17;;;9.25;;
68792;SDS011;55778;54.346;10.210;2023-02-28T06:40:55;18.35;;;8.68;;
68792;SDS011;55778;54.346;10.210;2023-02-28T06:43:21;19.35;;;8.65;;
68792;SDS011;55778;54.346;10.210;2023-02-28T06:45:47;16.63;;;8.18;;
68792;SDS011;55778;54.346;10.210;2023-02-28T06:48:13;16.42;;;9.02;;
68792;SDS011;55778;54.346;10.210;2023-02-28T06:50:38;19.35;;;8.40;;
68792;SDS011;55778;54.346;10.210;2023-02-28T06:53:04;18.73;;;8.02;;
68792;SDS011;55778;54.346;10.210;2023-02-28T06:55:29;21.20;;;8.80;;
68792;SDS011;55778;54.346;10.210;2023-02-28T06:57:55;18.83;;;8.25;;
68792;SDS011;55778;54.346;10.210;2023-02-28T07:00:20;19.42;;;8.82;;
68792;SDS011;55778;54.346;10.210;2023-02-28T07:02:46;14.48;;;8.38;;
68792;SDS011;55778;54.346;10.210;2023-02-28T07:05:12;16.80;;;8.27;;
68792;SDS011;55778;54.346;10.210;2023-02-28T07:07:38;15.63;;;8.02;;
68792;SDS011;55778;54.346;10.210;2023-02-28T07:10:05;15.27;;;8.40;;
68792;SDS011;55778;54.346;10.210;2023-02-28T07:12:31;15.18;;;7.75;;
68792;SDS011;55778;54.346;10.210;2023-02-28T07:14:57;14.73;;;7.32;;
68792;SDS011;55778;54.346;10.210;2023-02-28T07:17:22;14.00;;;7.53;;
68792;SDS011;55778;54.346;10.210;2023-02-28T07:19:47;13.43;;;6.72;;
68792;SDS011;55778;54.346;10.210;2023-02-28T07:22:13;14.57;;;6.90;;
68792;SDS011;55778;54.346;10.210;2023-02-28T07:24:38;12.00;;;7.07;;
68792;SDS011;55778;54.346;10.210;2023-02-28T07:27:03;13.88;;;7.13;;
68792;SDS011;55778;54.346;10.210;2023-02-28T07:29:29;11.43;;;6.40;;
68792;SDS011;55778;54.346;10.210;2023-02-28T07:31:54;11.57;;;6.63;;
68792;SDS011;55778;54.346;10.210;2023-02-28T07:34:21;12.27;;;6.03;;
68792;SDS011;55778;54.346;10.210;2023-02-28T07:36:47;15.15;;;6.57;;
68792;SDS011;55778;54.346;10.210;2023-02-28T07:39:13;19.45;;;6.88;;
68792;SDS011;55778;54.346;10.210;2023-02-28T07:41:38;12.27;;;6.90;;
68792;SDS011;55778;54.346;10.210;2023-02-28T07:46:34;12.13;;;6.03;;
68792;SDS011;55778;54.346;10.210;2023-02-28T07:49:00;15.02;;;5.15;;
68792;SDS011;55778;54.346;10.210;2023-02-28T07:51:27;14.07;;;5.65;;
68792;SDS011;55778;54.346;10.210;2023-02-28T07:53:53;11.60;;;5.88;;
68792;SDS011;55778;54.346;10.210;2023-02-28T07:56:19;11.13;;;5.95;;
68792;SDS011;55778;54.346;10.210;2023-02-28T07:58:44;10.80;;;6.18;;
68792;SDS011;55778;54.346;10.210;2023-02-28T08:01:10;9.38;;;5.78;;
68792;SDS011;55778;54.346;10.210;2023-02-28T08:03:36;11.65;;;5.88;;
68792;SDS011;55778;54.346;10.210;2023-02-28T08:06:06;11.10;;;5.97;;
68792;SDS011;55778;54.346;10.210;2023-02-28T08:08:33;12.02;;;6.32;;
68792;SDS011;55778;54.346;10.210;2023-02-28T08:10:59;9.98;;;5.82;;
68792;SDS011;55778;54.346;10.210;2023-02-28T08:13:26;9.25;;;5.43;;
68792;SDS011;55778;54.346;10.210;2023-02-28T08:15:53;9.38;;;5.70;;
68792;SDS011;55778;54.346;10.210;2023-02-28T08:18:19;8.63;;;5.47;;
68792;SDS011;55778;54.346;10.210;2023-02-28T08:20:45;10.23;;;5.57;;
68792;SDS011;55778;54.346;10.210;2023-02-28T08:23:11;10.05;;;5.35;;
68792;SDS011;55778;54.346;10.210;2023-02-28T08:25:36;12.05;;;5.70;;
68792;SDS011;55778;54.346;10.210;2023-02-28T08:28:01;9.35;;;5.25;;
68792;SDS011;55778;54.346;10.210;2023-02-28T08:30:27;9.73;;;5.30;;
68792;SDS011;55778;54.346;10.210;2023-02-28T08:32:52;9.27;;;5.47;;
68792;SDS011;55778;54.346;10.210;2023-02-28T08:35:17;11.60;;;5.57;;
68792;SDS011;55778;54.346;10.210;2023-02-28T08:37:43;7.70;;;4.75;;
68792;SDS011;55778;54.346;10.210;2023-02-28T08:40:08;8.50;;;4.30;;
68792;SDS011;55778;54.346;10.210;2023-02-28T08:42:34;7.20;;;4.13;;
68792;SDS011;55778;54.346;10.210;2023-02-28T08:45:00;7.43;;;4.00;;
68792;SDS011;55778;54.346;10.210;2023-02-28T08:47:25;7.05;;;3.50;;
68792;SDS011;55778;54.346;10.210;2023-02-28T08:49:51;7.93;;;4.05;;
68792;SDS011;55778;54.346;10.210;2023-02-28T08:52:16;5.03;;;2.90;;
68792;SDS011;55778;54.346;10.210;2023-02-28T08:54:44;12.20;;;3.38;;
68792;SDS011;55778;54.346;10.210;2023-02-28T08:57:10;6.97;;;2.35;;
68792;SDS011;55778;54.346;10.210;2023-02-28T08:59:35;5.63;;;2.55;;
68792;SDS011;55778;54.346;10.210;2023-02-28T09:02:01;5.55;;;3.10;;
68792;SDS011;55778;54.346;10.210;2023-02-28T09:04:26;7.50;;;2.70;;
68792;SDS011;55778;54.346;10.210;2023-02-28T09:06:51;6.50;;;2.97;;
68792;SDS011;55778;54.346;10.210;2023-02-28T09:09:17;5.95;;;3.08;;
68792;SDS011;55778;54.346;10.210;2023-02-28T09:11:42;5.63;;;2.70;;
68792;SDS011;55778;54.346;10.210;2023-02-28T09:14:07;7.70;;;3.33;;
68792;SDS011;55778;54.346;10.210;2023-02-28T09:16:33;6.10;;;2.90;;
68792;SDS011;55778;54.346;10.210;2023-02-28T09:18:59;5.80;;;3.10;;
68792;SDS011;55778;54.346;10.210;2023-02-28T09:21:25;5.38;;;2.58;;
68792;SDS011;55778;54.346;10.210;2023-02-28T09:23:51;5.88;;;2.63;;
68792;SDS011;55778;54.346;10.210;2023-02-28T09:26:22;6.00;;;3.25;;
68792;SDS011;55778;54.346;10.210;2023-02-28T09:28:51;6.55;;;3.25;;
68792;SDS011;55778;54.346;10.210;2023-02-28T09:31:18;5.10;;;3.15;;
68792;SDS011;55778;54.346;10.210;2023-02-28T09:33:50;7.20;;;3.22;;
68792;SDS011;55778;54.346;10.210;2023-02-28T09:36:17;8.02;;;3.35;;
68792;SDS011;55778;54.346;10.210;2023-02-28T09:38:43;7.88;;;3.63;;
68792;SDS011;55778;54.346;10.210;2023-02-28T09:41:13;8.60;;;3.17;;
68792;SDS011;55778;54.346;10.210;2023-02-28T09:43:52;8.52;;;3.90;;
68792;SDS011;55778;54.346;10.210;2023-02-28T09:49:07;7.22;;;3.70;;
68792;SDS011;55778;54.346;10.210;2023-02-28T09:54:24;5.13;;;2.92;;
68792;SDS011;55778;54.346;10.210;2023-02-28T09:56:53;8.90;;;3.70;;
68792;SDS011;55778;54.346;10.210;2023-02-28T10:08:11;6.03;;;3.05;;
68792;SDS011;55778;54.346;10.210;2023-02-28T10:10:45;5.65;;;2.65;;
68792;SDS011;55778;54.346;10.210;2023-02-28T10:13:20;3.95;;;2.55;;
68792;SDS011;55778;54.346;10.210;2023-02-28T10:15:48;6.65;;;3.13;;
68792;SDS011;55778;54.346;10.210;2023-02-28T10:18:19;5.65;;;2.90;;
68792;SDS011;55778;54.346;10.210;2023-02-28T10:20:49;4.15;;;2.67;;
68792;SDS011;55778;54.346;10.210;2023-02-28T10:23:25;6.18;;;2.80;;
68792;SDS011;55778;54.346;10.210;2023-02-28T10:26:00;4.70;;;2.45;;
68792;SDS011;55778;54.346;10.210;2023-02-28T10:28:33;5.63;;;2.63;;
68792;SDS011;55778;54.346;10.210;2023-02-28T10:30:58;5.65;;;2.10;;
68792;SDS011;55778;54.346;10.210;2023-02-28T10:35:53;3.55;;;2.08;;
68792;SDS011;55778;54.346;10.210;2023-02-28T10:38:22;4.63;;;2.42;;
68792;SDS011;55778;54.346;10.210;2023-02-28T10:41:06;5.03;;;2.20;;
68792;SDS011;55778;54.346;10.210;2023-02-28T10:43:32;5.35;;;2.15;;
68792;SDS011;55778;54.346;10.210;2023-02-28T10:45:58;4.60;;;2.00;;
68792;SDS011;55778;54.346;10.210;2023-02-28T10:48:29;4.32;;;1.90;;
68792;SDS011;55778;54.346;10.210;2023-02-28T10:50:57;3.10;;;1.85;;
68792;SDS011;55778;54.346;10.210;2023-02-28T10:58:53;3.00;;;1.40;;
68792;SDS011;55778;54.346;10.210;2023-02-28T11:03:43;3.33;;;1.75;;
68792;SDS011;55778;54.346;10.210;2023-02-28T11:06:13;2.58;;;1.35;;
68792;SDS011;55778;54.346;10.210;2023-02-28T11:08:54;3.60;;;1.65;;
68792;SDS011;55778;54.346;10.210;2023-02-28T11:11:22;3.75;;;1.80;;
68792;SDS011;55778;54.346;10.210;2023-02-28T11:16:18;3.60;;;1.67;;
68792;SDS011;55778;54.346;10.210;2023-02-28T11:18:51;4.78;;;1.77;;
68792;SDS011;55778;54.346;10.210;2023-02-28T11:21:36;4.35;;;1.80;;
68792;SDS011;55778;54.346;10.210;2023-02-28T11:26:51;3.60;;;1.50;;
68792;SDS011;55778;54.346;10.210;2023-02-28T11:29:21;3.15;;;1.20;;
68792;SDS011;55778;54.346;10.210;2023-02-28T11:32:31;3.63;;;1.42;;
68792;SDS011;55778;54.346;10.210;2023-02-28T11:34:46;3.90;;;1.38;;
68792;SDS011;55778;54.346;10.210;2023-02-28T11:37:24;4.22;;;1.60;;
68792;SDS011;55778;54.346;10.210;2023-02-28T11:39:52;2.55;;;1.48;;
68792;SDS011;55778;54.346;10.210;2023-02-28T11:56:03;4.55;;;2.00;;
68792;SDS011;55778;54.346;10.210;2023-02-28T11:58:39;7.97;;;2.53;;
68792;SDS011;55778;54.346;10.210;2023-02-28T12:03:56;3.00;;;1.70;;
68792;SDS011;55778;54.346;10.210;2023-02-28T12:12:21;3.28;;;1.50;;
68792;SDS011;55778;54.346;10.210;2023-02-28T12:17:35;3.83;;;2.00;;
68792;SDS011;55778;54.346;10.210;2023-02-28T12:28:10;2.78;;;1.95;;
68792;SDS011;55778;54.346;10.210;2023-02-28T12:33:12;5.30;;;1.90;;
68792;SDS011;55778;54.346;10.210;2023-02-28T12:44:05;4.18;;;1.90;;
68792;SDS011;55778;54.346;10.210;2023-02-28T12:46:39;4.38;;;1.90;;
68792;SDS011;55778;54.346;10.210;2023-02-28T12:49:09;3.10;;;1.75;;
68792;SDS011;55778;54.346;10.210;2023-02-28T12:51:39;3.50;;;1.80;;
68792;SDS011;55778;54.346;10.210;2023-02-28T12:59:41;3.33;;;1.80;;
68792;SDS011;55778;54.346;10.210;2023-02-28T13:05:08;3.22;;;1.83;;
68792;SDS011;55778;54.346;10.210;2023-02-28T13:10:42;3.58;;;1.70;;
68792;SDS011;55778;54.346;10.210;2023-02-28T13:13:13;3.47;;;1.70;;
68792;SDS011;55778;54.346;10.210;2023-02-28T13:15:41;5.05;;;1.70;;
68792;SDS011;55778;54.346;10.210;2023-02-28T13:18:44;4.65;;;1.80;;
68792;SDS011;55778;54.346;10.210;2023-02-28T13:21:24;3.50;;;1.90;;
68792;SDS011;55778;54.346;10.210;2023-02-28T13:26:23;4.75;;;2.00;;
68792;SDS011;55778;54.346;10.210;2023-02-28T13:34:27;4.65;;;2.25;;
68792;SDS011;55778;54.346;10.210;2023-02-28T13:37:02;3.35;;;1.88;;
68792;SDS011;55778;54.346;10.210;2023-02-28T13:39:48;3.45;;;1.58;;
68792;SDS011;55778;54.346;10.210;2023-02-28T13:47:40;6.97;;;1.80;;
68792;SDS011;55778;54.346;10.210;2023-02-28T14:06:54;2.83;;;1.58;;
68792;SDS011;55778;54.346;10.210;2023-02-28T14:09:25;3.65;;;1.77;;
68792;SDS011;55778;54.346;10.210;2023-02-28T14:17:58;3.90;;;1.98;;
68792;SDS011;55778;54.346;10.210;2023-02-28T14:20:27;3.00;;;1.70;;
68792;SDS011;55778;54.346;10.210;2023-02-28T14:36:57;2.40;;;1.48;;
68792;SDS011;55778;54.346;10.210;2023-02-28T14:39:25;2.38;;;1.50;;
68792;SDS011;55778;54.346;10.210;2023-02-28T14:41:55;2.45;;;1.50;;
68792;SDS011;55778;54.346;10.210;2023-02-28T14:44:26;2.78;;;1.50;;
68792;SDS011;55778;54.346;10.210;2023-02-28T14:46:53;2.92;;;1.33;;
68792;SDS011;55778;54.346;10.210;2023-02-28T14:49:23;2.45;;;1.60;;
68792;SDS011;55778;54.346;10.210;2023-02-28T14:51:49;4.50;;;2.00;;
68792;SDS011;55778;54.346;10.210;2023-02-28T14:54:26;3.20;;;1.60;;
68792;SDS011;55778;54.346;10.210;2023-02-28T14:56:52;11.25;;;2.10;;
68792;SDS011;55778;54.346;10.210;2023-02-28T14:59:24;2.22;;;1.40;;
68792;SDS011;55778;54.346;10.210;2023-02-28T15:02:14;2.47;;;1.50;;
68792;SDS011;55778;54.346;10.210;2023-02-28T15:05:01;5.05;;;2.45;;
68792;SDS011;55778;54.346;10.210;2023-02-28T15:07:41;2.80;;;1.80;;
68792;SDS011;55778;54.346;10.210;2023-02-28T15:12:39;3.90;;;1.70;;
68792;SDS011;55778;54.346;10.210;2023-02-28T15:15:13;3.60;;;1.83;;
68792;SDS011;55778;54.346;10.210;2023-02-28T15:17:40;2.95;;;1.60;;
68792;SDS011;55778;54.346;10.210;2023-02-28T15:20:11;4.70;;;1.50;;
68792;SDS011;55778;54.346;10.210;2023-02-28T15:22:38;2.72;;;1.73;;
68792;SDS011;55778;54.346;10.210;2023-02-28T15:25:04;3.00;;;1.60;;
68792;SDS011;55778;54.346;10.210;2023-02-28T15:27:33;2.75;;;1.55;;
68792;SDS011;55778;54.346;10.210;2023-02-28T15:30:08;2.78;;;1.33;;
68792;SDS011;55778;54.346;10.210;2023-02-28T15:32:41;2.50;;;1.60;;
68792;SDS011;55778;54.346;10.210;2023-02-28T15:37:53;2.42;;;1.45;;
68792;SDS011;55778;54.346;10.210;2023-02-28T15:48:38;25.45;;;12.45;;
68792;SDS011;55778;54.346;10.210;2023-02-28T15:51:19;2.58;;;1.40;;
68792;SDS011;55778;54.346;10.210;2023-02-28T15:53:54;3.15;;;1.50;;
68792;SDS011;55778;54.346;10.210;2023-02-28T15:58:47;7.32;;;3.47;;
68792;SDS011;55778;54.346;10.210;2023-02-28T16:01:18;7.88;;;4.00;;
68792;SDS011;55778;54.346;10.210;2023-02-28T16:03:49;8.07;;;4.38;;
68792;SDS011;55778;54.346;10.210;2023-02-28T16:09:02;8.10;;;4.50;;
68792;SDS011;55778;54.346;10.210;2023-02-28T16:11:28;8.40;;;4.47;;
68792;SDS011;55778;54.346;10.210;2023-02-28T16:13:55;9.07;;;4.75;;
68792;SDS011;55778;54.346;10.210;2023-02-28T16:16:22;8.35;;;4.93;;
68792;SDS011;55778;54.346;10.210;2023-02-28T16:18:50;9.30;;;4.87;;
68792;SDS011;55778;54.346;10.210;2023-02-28T16:21:16;10.25;;;5.32;;
68792;SDS011;55778;54.346;10.210;2023-02-28T16:23:42;8.40;;;5.13;;
68792;SDS011;55778;54.346;10.210;2023-02-28T16:26:07;7.88;;;4.80;;
68792;SDS011;55778;54.346;10.210;2023-02-28T16:28:34;10.88;;;4.95;;
68792;SDS011;55778;54.346;10.210;2023-02-28T16:31:04;9.05;;;5.10;;
68792;SDS011;55778;54.346;10.210;2023-02-28T16:33:31;11.52;;;5.13;;
68792;SDS011;55778;54.346;10.210;2023-02-28T16:35:58;7.90;;;4.70;;
68792;SDS011;55778;54.346;10.210;2023-02-28T16:38:24;11.35;;;5.57;;
68792;SDS011;55778;54.346;10.210;2023-02-28T16:40:50;8.93;;;5.43;;
68792;SDS011;55778;54.346;10.210;2023-02-28T16:43:18;13.98;;;6.97;;
68792;SDS011;55778;54.346;10.210;2023-02-28T16:45:47;11.57;;;5.40;;
68792;SDS011;55778;54.346;10.210;2023-02-28T16:48:13;12.68;;;5.22;;
68792;SDS011;55778;54.346;10.210;2023-02-28T16:50:40;14.10;;;7.60;;
68792;SDS011;55778;54.346;10.210;2023-02-28T16:53:07;17.48;;;7.75;;
68792;SDS011;55778;54.346;10.210;2023-02-28T16:55:33;14.70;;;7.03;;
68792;SDS011;55778;54.346;10.210;2023-02-28T16:58:00;15.95;;;7.25;;
68792;SDS011;55778;54.346;10.210;2023-02-28T17:00:27;16.73;;;7.30;;
68792;SDS011;55778;54.346;10.210;2023-02-28T17:02:55;12.15;;;6.32;;
68792;SDS011;55778;54.346;10.210;2023-02-28T17:05:21;14.45;;;6.10;;
68792;SDS011;55778;54.346;10.210;2023-02-28T17:07:47;9.45;;;4.97;;
68792;SDS011;55778;54.346;10.210;2023-02-28T17:10:23;10.52;;;5.00;;
68792;SDS011;55778;54.346;10.210;2023-02-28T17:12:49;11.32;;;4.88;;
68792;SDS011;55778;54.346;10.210;2023-02-28T17:15:16;7.78;;;5.05;;
68792;SDS011;55778;54.346;10.210;2023-02-28T17:17:43;14.85;;;5.30;;
68792;SDS011;55778;54.346;10.210;2023-02-28T17:20:13;9.98;;;5.15;;
68792;SDS011;55778;54.346;10.210;2023-02-28T17:22:40;10.32;;;4.97;;
68792;SDS011;55778;54.346;10.210;2023-02-28T17:25:06;15.88;;;4.97;;
68792;SDS011;55778;54.346;10.210;2023-02-28T17:27:32;13.65;;;5.15;;
68792;SDS011;55778;54.346;10.210;2023-02-28T17:29:58;9.43;;;4.85;;
68792;SDS011;55778;54.346;10.210;2023-02-28T17:32:23;10.73;;;5.10;;
68792;SDS011;55778;54.346;10.210;2023-02-28T17:34:48;13.50;;;5.50;;
68792;SDS011;55778;54.346;10.210;2023-02-28T17:37:14;10.85;;;5.63;;
68792;SDS011;55778;54.346;10.210;2023-02-28T17:39:40;13.43;;;5.88;;
68792;SDS011;55778;54.346;10.210;2023-02-28T17:42:05;13.25;;;6.60;;